createdAt,value
2022-11-06T00:00:45.858Z,6.60
2022-11-06T00:03:31.370Z,6.60
2022-11-06T00:06:18.832Z,6.60
2022-11-06T00:09:04.578Z,6.60
2022-11-06T00:11:42.568Z,6.50
2022-11-06T00:14:11.539Z,6.50
2022-11-06T00:16:40.660Z,6.60
2022-11-06T00:19:09.192Z,6.60
2022-11-06T00:21:39.459Z,6.60
2022-11-06T00:24:08.520Z,6.60
2022-11-06T00:26:37.187Z,6.60
2022-11-06T00:29:06.119Z,6.50
2022-11-06T00:31:37.138Z,6.50
2022-11-06T00:34:06.848Z,6.50
2022-11-06T00:36:35.057Z,6.50
2022-11-06T00:39:05.030Z,6.50
2022-11-06T00:41:35.160Z,6.40
2022-11-06T00:44:04.281Z,6.40
2022-11-06T00:46:33.057Z,6.40
2022-11-06T00:49:02.036Z,6.40
2022-11-06T00:51:31.326Z,6.50
2022-11-06T00:54:00.725Z,6.50
2022-11-06T00:56:31.001Z,6.50
2022-11-06T00:59:00.500Z,6.50
2022-11-06T01:01:29.998Z,6.50
2022-11-06T01:03:59.380Z,6.50
2022-11-06T01:06:29.012Z,6.50
2022-11-06T01:08:57.630Z,6.50
2022-11-06T01:11:27.271Z,6.50
2022-11-06T01:13:58.663Z,6.50
2022-11-06T01:16:27.606Z,6.50
2022-11-06T01:18:56.502Z,6.50
2022-11-06T01:21:25.801Z,6.50
2022-11-06T01:23:54.671Z,6.50
2022-11-06T01:26:37.338Z,6.00
2022-11-06T01:29:08.670Z,6.50
2022-11-06T01:31:37.111Z,6.40
2022-11-06T01:34:06.061Z,6.50
2022-11-06T01:36:34.603Z,6.50
2022-11-06T01:39:03.953Z,6.40
2022-11-06T01:41:33.977Z,6.40
2022-11-06T01:44:06.137Z,6.40
2022-11-06T01:46:39.276Z,6.40
2022-11-06T01:49:09.046Z,6.40
2022-11-06T01:51:39.453Z,6.40
2022-11-06T01:54:09.442Z,6.40
2022-11-06T01:56:39.420Z,6.40
2022-11-06T01:59:09.311Z,6.40
2022-11-06T02:01:39.947Z,6.40
2022-11-06T02:04:11.114Z,6.40
2022-11-06T02:06:39.481Z,6.40
2022-11-06T02:09:11.621Z,6.40
2022-11-06T02:11:42.271Z,6.30
2022-11-06T02:14:14.523Z,6.30
2022-11-06T02:16:48.040Z,6.30
2022-11-06T02:19:36.910Z,6.30
2022-11-06T02:22:11.819Z,6.30
2022-11-06T02:24:55.022Z,6.30
2022-11-06T02:27:25.861Z,6.30
2022-11-06T02:29:58.490Z,6.20
2022-11-06T02:32:32.181Z,6.30
2022-11-06T02:35:02.181Z,6.30
2022-11-06T02:37:32.011Z,6.40
2022-11-06T02:40:01.904Z,6.20
2022-11-06T02:42:32.042Z,6.20
2022-11-06T02:45:00.901Z,6.20
2022-11-06T02:47:34.782Z,6.20
2022-11-06T02:50:06.449Z,6.20
2022-11-06T02:52:38.790Z,6.20
2022-11-06T02:55:09.849Z,6.20
2022-11-06T02:57:41.571Z,6.30
2022-11-06T03:00:11.513Z,6.30
2022-11-06T03:02:43.385Z,6.30
2022-11-06T03:05:14.832Z,6.30
2022-11-06T03:07:45.838Z,6.30
2022-11-06T03:10:14.490Z,6.30
2022-11-06T03:12:51.050Z,6.40
2022-11-06T03:15:22.340Z,6.40
2022-11-06T03:17:52.791Z,6.40
2022-11-06T03:20:23.715Z,6.40
2022-11-06T03:22:55.875Z,6.40
2022-11-06T03:25:27.009Z,6.40
2022-11-06T03:28:01.682Z,6.40
2022-11-06T03:30:32.580Z,6.40
2022-11-06T03:33:02.722Z,6.40
2022-11-06T03:35:32.818Z,6.50
2022-11-06T03:38:03.152Z,6.50
2022-11-06T03:40:33.427Z,6.50
2022-11-06T03:43:05.551Z,6.50
2022-11-06T03:45:34.909Z,6.50
2022-11-06T03:48:06.590Z,6.50
2022-11-06T03:50:36.659Z,6.40
2022-11-06T03:53:10.342Z,6.40
2022-11-06T03:55:41.091Z,6.40
2022-11-06T03:58:13.573Z,6.40
2022-11-06T04:00:43.468Z,6.40
2022-11-06T04:03:15.691Z,6.40
2022-11-06T04:05:46.821Z,6.40
2022-11-06T04:08:33.390Z,6.40
2022-11-06T04:11:20.681Z,6.40
2022-11-06T04:14:02.144Z,6.40
2022-11-06T04:16:33.320Z,6.40
2022-11-06T04:19:01.712Z,6.40
2022-11-06T04:21:35.140Z,6.40
2022-11-06T04:24:24.755Z,6.40
2022-11-06T04:26:59.800Z,6.30
2022-11-06T04:29:39.119Z,6.30
2022-11-06T04:32:09.870Z,6.30
2022-11-06T04:34:44.646Z,6.30
2022-11-06T04:37:19.130Z,6.30
2022-11-06T04:39:51.556Z,6.30
2022-11-06T04:42:22.966Z,6.30
2022-11-06T04:44:55.794Z,6.10
2022-11-06T04:47:24.477Z,6.30
2022-11-06T04:50:03.997Z,6.30
2022-11-06T04:52:32.445Z,6.30
2022-11-06T04:55:00.716Z,6.30
2022-11-06T04:57:29.106Z,6.30
2022-11-06T04:59:59.225Z,6.30
2022-11-06T05:02:27.513Z,6.30
2022-11-06T05:04:56.843Z,6.30
2022-11-06T05:07:25.098Z,6.30
2022-11-06T05:09:53.454Z,6.30
2022-11-06T05:12:21.844Z,6.30
2022-11-06T05:14:51.189Z,6.40
2022-11-06T05:17:20.899Z,6.40
2022-11-06T05:19:49.421Z,6.40
2022-11-06T05:22:40.441Z,6.40
2022-11-06T05:25:09.153Z,6.40
2022-11-06T05:27:37.457Z,6.40
2022-11-06T05:30:08.629Z,6.40
2022-11-06T05:32:40.144Z,6.40
2022-11-06T05:35:09.470Z,6.40
2022-11-06T05:37:38.250Z,6.40
2022-11-06T05:40:08.871Z,6.40
2022-11-06T05:42:42.142Z,6.40
2022-11-06T05:45:15.181Z,6.40
2022-11-06T05:47:44.888Z,6.40
2022-11-06T05:50:13.497Z,6.30
2022-11-06T05:52:42.098Z,6.30
2022-11-06T05:55:14.689Z,6.30
2022-11-06T05:57:44.057Z,6.30
2022-11-06T06:00:13.717Z,6.30
2022-11-06T06:02:42.292Z,6.30
2022-11-06T06:05:14.848Z,6.30
2022-11-06T06:07:43.125Z,6.30
2022-11-06T06:10:11.753Z,6.30
2022-11-06T06:12:40.604Z,6.30
2022-11-06T06:15:09.267Z,6.30
2022-11-06T06:17:37.765Z,6.30
2022-11-06T06:20:06.445Z,6.30
2022-11-06T06:22:36.216Z,6.30
2022-11-06T06:25:05.169Z,6.30
2022-11-06T06:27:36.136Z,6.30
2022-11-06T06:30:04.365Z,6.30
2022-11-06T06:32:32.827Z,6.30
2022-11-06T06:35:01.321Z,6.30
2022-11-06T06:37:30.044Z,6.30
2022-11-06T06:39:59.809Z,6.30
2022-11-06T06:42:31.471Z,6.40
2022-11-06T06:44:59.989Z,6.40
2022-11-06T06:47:28.382Z,6.40
2022-11-06T06:49:56.740Z,6.40
2022-11-06T06:52:25.043Z,6.50
2022-11-06T06:54:53.524Z,6.50
2022-11-06T06:57:23.320Z,6.50
2022-11-06T06:59:51.689Z,6.50
2022-11-06T07:02:20.193Z,6.60
2022-11-06T07:04:49.017Z,6.60
2022-11-06T07:07:17.469Z,6.70
2022-11-06T07:09:45.760Z,6.70
2022-11-06T07:12:14.365Z,6.80
2022-11-06T07:14:44.076Z,6.80
2022-11-06T07:17:12.407Z,6.90
2022-11-06T07:19:40.790Z,6.90
2022-11-06T07:22:09.126Z,7.00
2022-11-06T07:24:37.376Z,7.10
2022-11-06T07:27:05.736Z,7.10
2022-11-06T07:29:34.251Z,7.20
2022-11-06T07:32:04.216Z,7.30
2022-11-06T07:34:32.581Z,7.30
2022-11-06T07:37:05.208Z,7.40
2022-11-06T07:39:36.023Z,7.50
2022-11-06T07:42:04.836Z,7.50
2022-11-06T07:44:33.344Z,7.60
2022-11-06T07:47:01.833Z,7.60
2022-11-06T07:49:31.802Z,7.70
2022-11-06T07:52:09.437Z,7.70
2022-11-06T07:54:38.247Z,7.70
2022-11-06T07:57:16.198Z,7.80
2022-11-06T07:59:46.284Z,7.90
2022-11-06T08:02:14.965Z,7.90
2022-11-06T08:04:45.684Z,8.00
2022-11-06T08:07:14.479Z,8.00
2022-11-06T08:09:42.778Z,8.10
2022-11-06T08:12:11.097Z,8.10
2022-11-06T08:14:41.569Z,8.20
2022-11-06T08:17:10.569Z,8.30
2022-11-06T08:19:39.149Z,8.30
2022-11-06T08:22:09.359Z,8.30
2022-11-06T08:24:37.886Z,8.40
2022-11-06T08:27:06.229Z,8.50
2022-11-06T08:29:40.936Z,8.60
2022-11-06T08:32:09.758Z,8.70
2022-11-06T08:34:38.578Z,8.80
2022-11-06T08:37:08.594Z,8.90
2022-11-06T08:39:36.911Z,9.00
2022-11-06T08:42:05.731Z,9.00
2022-11-06T08:44:34.041Z,9.00
2022-11-06T08:47:02.359Z,9.00
2022-11-06T08:49:30.719Z,9.10
2022-11-06T08:51:59.025Z,9.10
2022-11-06T08:54:28.768Z,9.20
2022-11-06T08:56:58.548Z,9.20
2022-11-06T08:59:26.955Z,9.20
2022-11-06T09:01:56.493Z,9.30
2022-11-06T09:04:25.012Z,9.40
2022-11-06T09:06:53.871Z,9.50
2022-11-06T09:09:22.140Z,9.50
2022-11-06T09:11:52.020Z,9.50
2022-11-06T09:14:20.282Z,9.60
2022-11-06T09:16:48.895Z,9.60
2022-11-06T09:19:17.424Z,9.60
2022-11-06T09:21:49.119Z,9.70
2022-11-06T09:24:37.575Z,9.80
2022-11-06T09:27:11.740Z,9.90
2022-11-06T09:29:44.125Z,9.90
2022-11-06T09:32:12.964Z,9.90
2022-11-06T09:34:41.687Z,10.00
2022-11-06T09:37:10.198Z,10.00
2022-11-06T09:39:38.448Z,10.00
2022-11-06T09:42:09.992Z,10.00
2022-11-06T09:44:47.881Z,10.00
2022-11-06T09:47:18.618Z,10.00
2022-11-06T09:49:49.477Z,10.00
2022-11-06T09:52:21.353Z,10.10
2022-11-06T09:54:56.122Z,10.10
2022-11-06T09:57:30.095Z,10.20
2022-11-06T10:00:01.892Z,10.20
2022-11-06T10:02:32.273Z,10.20
2022-11-06T10:05:05.504Z,10.30
2022-11-06T10:07:35.673Z,10.40
2022-11-06T10:10:05.488Z,10.50
2022-11-06T10:12:40.533Z,10.50
2022-11-06T10:15:19.651Z,10.60
2022-11-06T10:17:52.106Z,10.60
2022-11-06T10:20:26.797Z,10.80
2022-11-06T10:23:03.090Z,10.80
2022-11-06T10:25:41.253Z,10.80
2022-11-06T10:28:15.343Z,10.90
2022-11-06T10:30:51.612Z,11.00
2022-11-06T10:33:23.685Z,11.00
2022-11-06T10:35:54.953Z,11.00
2022-11-06T10:38:24.946Z,11.00
2022-11-06T10:40:54.205Z,10.90
2022-11-06T10:43:25.696Z,10.90
2022-11-06T10:45:58.580Z,10.90
2022-11-06T10:48:31.036Z,10.90
2022-11-06T10:51:09.757Z,11.00
2022-11-06T10:53:42.396Z,11.00
2022-11-06T10:56:21.278Z,11.10
2022-11-06T10:58:51.328Z,11.10
2022-11-06T11:01:22.511Z,11.10
2022-11-06T11:03:53.520Z,11.20
2022-11-06T11:06:25.053Z,11.20
2022-11-06T11:09:22.488Z,11.20
2022-11-06T11:11:55.648Z,11.30
2022-11-06T11:14:36.423Z,11.10
2022-11-06T11:17:09.438Z,11.30
2022-11-06T11:19:38.591Z,11.40
2022-11-06T11:22:18.521Z,11.40
2022-11-06T11:25:00.383Z,11.40
2022-11-06T11:27:29.532Z,11.40
2022-11-06T11:29:58.019Z,11.50
2022-11-06T11:32:30.593Z,11.50
2022-11-06T11:34:59.555Z,11.50
2022-11-06T11:37:29.572Z,11.50
2022-11-06T11:40:26.552Z,11.60
2022-11-06T11:43:06.202Z,11.70
2022-11-06T11:45:35.469Z,11.80
2022-11-06T11:48:19.049Z,11.80
2022-11-06T11:50:47.827Z,11.80
2022-11-06T11:53:54.977Z,11.60
2022-11-06T11:57:03.689Z,11.70
2022-11-06T11:59:34.370Z,11.70
2022-11-06T12:02:04.047Z,11.80
2022-11-06T12:04:38.421Z,11.80
2022-11-06T12:07:09.794Z,11.70
2022-11-06T12:09:47.749Z,11.80
2022-11-06T12:12:22.705Z,11.90
2022-11-06T12:15:05.992Z,11.90
2022-11-06T12:17:35.825Z,12.00
2022-11-06T12:20:08.136Z,12.10
2022-11-06T12:22:40.316Z,12.10
2022-11-06T12:36:38.327Z,11.80
2022-11-06T12:39:40.898Z,12.10
2022-11-06T12:42:16.614Z,12.10
2022-11-06T12:45:05.072Z,12.20
2022-11-06T12:47:51.195Z,12.20
2022-11-06T12:50:43.307Z,12.30
2022-11-06T12:53:18.116Z,12.20
2022-11-06T12:55:54.265Z,12.30
2022-11-06T12:58:44.174Z,12.30
2022-11-06T13:01:17.776Z,12.40
2022-11-06T13:04:00.315Z,12.40
2022-11-06T13:06:36.348Z,12.50
2022-11-06T13:09:10.336Z,12.40
2022-11-06T13:11:45.826Z,12.30
2022-11-06T13:14:18.429Z,12.30
2022-11-06T13:16:51.956Z,12.30
2022-11-06T13:19:22.953Z,12.30
2022-11-06T13:22:02.839Z,12.40
2022-11-06T13:24:35.402Z,12.40
2022-11-06T13:27:09.681Z,12.40
2022-11-06T13:29:39.013Z,12.40
2022-11-06T13:32:11.951Z,12.30
2022-11-06T13:34:42.123Z,12.30
2022-11-06T13:37:14.794Z,12.20
2022-11-06T13:39:45.904Z,12.20
2022-11-06T13:42:20.473Z,12.20
2022-11-06T13:44:49.380Z,12.20
2022-11-06T13:47:21.012Z,12.20
2022-11-06T13:49:56.042Z,12.20
2022-11-06T13:52:30.840Z,12.20
2022-11-06T13:55:05.527Z,12.20
2022-11-06T13:58:01.807Z,12.20
2022-11-06T14:00:37.004Z,12.20
2022-11-06T14:03:23.105Z,12.20
2022-11-06T14:05:53.453Z,12.20
2022-11-06T14:08:25.485Z,12.10
2022-11-06T14:10:57.212Z,12.10
2022-11-06T14:13:28.471Z,12.00
2022-11-06T14:16:07.681Z,11.90
2022-11-06T14:18:36.790Z,11.90
2022-11-06T14:21:35.412Z,11.80
2022-11-06T14:24:22.344Z,11.80
2022-11-06T14:26:51.478Z,11.70
2022-11-06T14:29:37.930Z,11.60
2022-11-06T14:32:12.122Z,11.60
2022-11-06T14:34:41.302Z,11.50
2022-11-06T14:37:32.791Z,11.40
2022-11-06T14:40:06.469Z,11.40
2022-11-06T14:42:36.890Z,11.30
2022-11-06T14:45:12.107Z,11.30
2022-11-06T14:47:42.978Z,11.20
2022-11-06T14:50:26.068Z,11.20
2022-11-06T14:52:56.463Z,11.10
2022-11-06T14:55:27.983Z,11.10
2022-11-06T14:57:56.826Z,11.10
2022-11-06T15:00:39.771Z,11.00
2022-11-06T15:03:18.153Z,11.00
2022-11-06T15:05:51.998Z,11.00
2022-11-06T15:08:39.247Z,10.90
2022-11-06T15:11:10.530Z,10.80
2022-11-06T15:13:38.956Z,10.70
2022-11-06T15:16:13.426Z,10.70
2022-11-06T15:18:47.378Z,10.60
2022-11-06T15:21:23.812Z,10.50
2022-11-06T15:23:57.866Z,10.60
2022-11-06T15:26:33.679Z,10.50
2022-11-06T15:29:11.740Z,10.40
2022-11-06T15:31:40.734Z,10.40
2022-11-06T15:34:17.582Z,10.30
2022-11-06T15:36:48.490Z,10.30
2022-11-06T15:39:23.555Z,10.20
2022-11-06T15:41:53.102Z,10.20
2022-11-06T15:44:22.521Z,10.20
2022-11-06T15:46:54.732Z,10.10
2022-11-06T15:49:25.310Z,10.10
2022-11-06T15:51:56.475Z,10.20
2022-11-06T15:54:36.020Z,10.00
2022-11-06T15:57:06.599Z,10.00
2022-11-06T15:59:35.115Z,9.90
2022-11-06T16:02:06.280Z,9.90
2022-11-06T16:04:37.354Z,9.80
2022-11-06T16:07:09.537Z,9.80
2022-11-06T16:09:38.443Z,9.80
2022-11-06T16:12:08.043Z,9.80
2022-11-06T16:14:40.289Z,9.70
2022-11-06T16:17:13.049Z,9.70
2022-11-06T16:19:45.678Z,9.70
2022-11-06T16:22:15.587Z,9.60
2022-11-06T16:24:46.184Z,9.60
2022-11-06T16:27:15.760Z,9.60
2022-11-06T16:29:47.027Z,9.50
2022-11-06T16:32:17.038Z,9.60
2022-11-06T16:34:47.624Z,9.60
2022-11-06T16:37:34.375Z,9.50
2022-11-06T16:40:07.377Z,9.50
2022-11-06T16:42:39.040Z,9.50
2022-11-06T16:45:13.249Z,9.40
2022-11-06T16:47:42.102Z,9.40
2022-11-06T16:50:25.285Z,9.40
2022-11-06T16:52:55.755Z,9.30
2022-11-06T16:55:25.767Z,9.30
2022-11-06T16:57:55.246Z,9.30
2022-11-06T17:00:24.865Z,9.30
2022-11-06T17:02:56.073Z,9.20
2022-11-06T17:05:25.486Z,9.20
2022-11-06T17:08:07.965Z,9.20
2022-11-06T17:10:42.527Z,9.10
2022-11-06T17:13:15.452Z,9.10
2022-11-06T17:16:11.206Z,9.10
2022-11-06T17:18:40.891Z,9.00
2022-11-06T17:21:30.566Z,8.90
2022-11-06T17:24:31.252Z,8.90
2022-11-06T17:26:51.352Z,8.90
2022-11-06T17:29:22.370Z,8.90
2022-11-06T17:31:52.057Z,8.80
2022-11-06T17:34:20.658Z,8.80
2022-11-06T17:36:50.282Z,8.80
2022-11-06T17:39:20.202Z,8.80
2022-11-06T17:41:48.648Z,8.80
2022-11-06T17:44:20.230Z,8.70
2022-11-06T17:46:49.073Z,8.70
2022-11-06T17:49:20.302Z,8.70
2022-11-06T17:52:09.204Z,8.70
2022-11-06T17:54:39.592Z,8.70
2022-11-06T17:57:08.634Z,8.70
2022-11-06T17:59:37.114Z,8.60
2022-11-06T18:02:05.564Z,8.70
2022-11-06T18:04:36.681Z,8.60
2022-11-06T18:07:05.273Z,8.60
2022-11-06T18:09:33.604Z,8.60
2022-11-06T18:12:07.864Z,8.60
2022-11-06T18:14:39.866Z,8.60
2022-11-06T18:17:08.844Z,8.70
2022-11-06T18:19:38.379Z,8.60
2022-11-06T18:22:07.096Z,8.70
2022-11-06T18:24:41.542Z,8.70
2022-11-06T18:27:14.514Z,8.80
2022-11-06T18:43:10.338Z,8.60
2022-11-06T18:45:48.060Z,8.70
2022-11-06T18:48:21.814Z,8.60
2022-11-06T18:50:57.699Z,8.60
2022-11-06T18:53:29.160Z,8.60
2022-11-06T18:55:59.831Z,8.60
2022-11-06T18:58:32.381Z,8.60
2022-11-06T19:01:21.070Z,8.60
2022-11-06T19:03:56.540Z,8.60
2022-11-06T19:06:36.111Z,8.50
2022-11-06T19:09:05.159Z,8.50
2022-11-06T19:11:34.097Z,8.40
2022-11-06T19:14:04.071Z,8.40
2022-11-06T19:16:32.407Z,8.30
2022-11-06T19:21:33.196Z,8.30
2022-11-06T19:24:05.603Z,8.30
2022-11-06T19:26:35.936Z,8.30
2022-11-06T19:29:07.777Z,8.40
2022-11-06T19:31:37.716Z,8.60
2022-11-06T19:34:07.830Z,8.50
2022-11-06T19:36:36.359Z,8.40
2022-11-06T19:39:05.920Z,8.20
2022-11-06T19:41:35.083Z,8.40
2022-11-06T19:44:03.982Z,8.30
2022-11-06T19:46:37.181Z,8.40
2022-11-06T19:49:16.701Z,8.40
2022-11-06T19:52:42.127Z,8.20
2022-11-06T19:58:10.203Z,8.30
2022-11-06T20:00:39.213Z,8.30
2022-11-06T20:03:09.250Z,8.30
2022-11-06T20:05:41.537Z,8.30
2022-11-06T20:08:10.356Z,8.40
2022-11-06T20:10:39.348Z,8.40
2022-11-06T20:13:07.699Z,8.50
2022-11-06T20:15:36.152Z,8.50
2022-11-06T20:18:04.733Z,8.40
2022-11-06T20:20:36.453Z,8.40
2022-11-06T20:23:23.672Z,8.40
2022-11-06T20:26:10.637Z,8.40
2022-11-06T20:28:39.019Z,8.40
2022-11-06T20:31:08.405Z,8.30
2022-11-06T20:33:44.341Z,8.30
2022-11-06T20:36:15.534Z,8.80
2022-11-06T20:39:02.214Z,8.30
2022-11-06T20:41:36.589Z,8.30
2022-11-06T20:44:07.063Z,8.30
2022-11-06T20:46:35.739Z,8.30
2022-11-06T20:49:06.574Z,8.30
2022-11-06T20:52:12.635Z,8.30
2022-11-06T20:54:47.270Z,8.30
2022-11-06T20:57:17.086Z,8.30
2022-11-06T20:59:45.556Z,8.30
2022-11-06T21:02:14.620Z,8.30
2022-11-06T21:04:46.162Z,8.40
2022-11-06T21:07:16.942Z,8.40
2022-11-06T21:09:45.720Z,8.50
2022-11-06T21:12:14.511Z,8.50
2022-11-06T21:14:51.790Z,8.60
2022-11-06T21:17:21.029Z,8.60
2022-11-06T21:20:22.434Z,8.60
2022-11-06T21:23:19.899Z,8.60
2022-11-06T21:29:24.342Z,8.60
2022-11-06T21:45:51.717Z,8.60
2022-11-06T22:16:00.016Z,8.70
2022-11-06T22:19:00.534Z,8.70
2022-11-06T22:21:56.325Z,8.70
2022-11-06T22:24:42.148Z,8.70
2022-11-06T22:27:10.570Z,8.80
2022-11-06T22:29:49.113Z,8.70
2022-11-06T22:32:17.560Z,8.80
2022-11-06T22:34:46.492Z,8.80
2022-11-06T22:37:21.768Z,8.80
2022-11-06T22:39:50.553Z,8.80
2022-11-06T22:42:18.963Z,8.90
2022-11-06T22:44:49.023Z,8.80
2022-11-06T22:47:26.711Z,8.90
2022-11-06T22:49:55.019Z,8.90
2022-11-06T22:52:25.955Z,9.00
2022-11-06T22:54:54.495Z,9.00
2022-11-06T22:57:22.955Z,8.90
2022-11-06T22:59:52.741Z,9.00
2022-11-06T23:02:21.204Z,9.00
2022-11-06T23:04:52.735Z,9.00
2022-11-06T23:07:21.107Z,9.00
2022-11-06T23:09:49.746Z,9.10
2022-11-06T23:12:18.201Z,9.10
2022-11-06T23:14:46.502Z,9.20
2022-11-06T23:17:16.318Z,9.20
2022-11-06T23:19:44.806Z,9.20
2022-11-06T23:22:30.757Z,9.30
2022-11-06T23:24:59.595Z,9.30
2022-11-06T23:27:28.013Z,9.30
2022-11-06T23:30:00.840Z,9.30
2022-11-06T23:32:31.075Z,9.30
2022-11-06T23:34:59.434Z,9.30
2022-11-06T23:37:28.402Z,9.30
2022-11-06T23:39:56.718Z,9.40
2022-11-06T23:42:26.794Z,9.40
2022-11-06T23:45:12.351Z,9.40
2022-11-06T23:47:41.983Z,9.40
2022-11-06T23:50:10.743Z,9.40
2022-11-06T23:52:39.044Z,9.40
2022-11-06T23:55:08.083Z,9.40
2022-11-06T23:57:36.404Z,9.40
